Time;durP1;ratioP1;P1;durP2;ratioP2;P2;SDS_P1;SDS_P2;PMS_P1;PMS_P2;Temp;Humidity;BMP_temperature;BMP_pressure;BME280_temperature;BME280_humidity;BME280_pressure;Samples;Min_cycle;Max_cycle;Signal;HPM_P1;HPM_P2
2023/12/17 00:01:49;;;;;;;18.63;10.67;;;2.70;99.90;;;2.36;64.92;96936.19;5061023;28;20447;-61
2023/12/17 00:04:16;;;;;;;14.00;8.93;;;2.70;99.90;;;2.32;65.40;96931.06;5063207;28;20455;-61
2023/12/17 00:06:43;;;;;;;15.50;8.97;;;2.70;99.90;;;2.29;65.33;96930.28;5062844;28;20447;-61
2023/12/17 00:09:11;;;;;;;16.30;8.83;;;2.70;99.90;;;2.27;66.03;96935.50;5060800;28;21027;-60
2023/12/17 00:11:41;;;;;;;11.63;7.97;;;2.60;99.90;;;2.25;65.89;96946.84;5063296;28;20463;-60
2023/12/17 00:14:11;;;;;;;14.33;7.93;;;2.60;99.90;;;2.21;65.15;96945.19;5063097;28;20454;-63
2023/12/17 00:16:38;;;;;;;11.80;8.13;;;2.60;99.90;;;2.18;65.48;96947.88;5063733;28;20463;-61
2023/12/17 00:19:07;;;;;;;12.83;7.47;;;2.50;99.90;;;2.14;65.15;96955.72;5062260;28;20490;-61
2023/12/17 00:21:35;;;;;;;12.50;7.13;;;2.50;99.90;;;2.11;65.29;96958.41;5060832;28;20462;-61
2023/12/17 00:24:02;;;;;;;12.33;7.07;;;2.50;99.90;;;2.11;65.89;96960.16;5057772;28;20451;-62
2023/12/17 00:26:29;;;;;;;11.73;6.80;;;2.50;99.90;;;2.08;66.19;96966.25;5062316;28;20458;-62
2023/12/17 00:28:56;;;;;;;14.57;7.37;;;2.50;99.90;;;2.06;66.02;96965.44;5063589;28;20830;-61
2023/12/17 00:31:24;;;;;;;8.90;6.83;;;2.40;99.90;;;2.04;65.16;96962.03;5057114;28;20452;-61
2023/12/17 00:33:51;;;;;;;14.20;7.07;;;2.40;99.90;;;2.03;65.99;96981.09;5062051;28;20471;-61
2023/12/17 00:36:20;;;;;;;11.67;6.90;;;2.40;99.90;;;2.00;65.30;96975.97;5063142;28;20450;-61
2023/12/17 00:38:47;;;;;;;12.17;7.37;;;2.40;99.90;;;1.98;66.38;96972.53;5057844;28;20850;-62
2023/12/17 00:41:15;;;;;;;9.70;7.13;;;2.40;99.90;;;1.97;65.49;96973.44;5061744;28;20907;-62
2023/12/17 00:43:43;;;;;;;8.47;6.70;;;2.30;99.90;;;1.97;65.76;96970.84;5062982;28;20554;-61
2023/12/17 00:46:10;;;;;;;9.53;7.00;;;2.30;99.90;;;1.95;65.75;96973.47;5060661;28;20459;-61
2023/12/17 00:48:37;;;;;;;10.10;7.03;;;2.30;99.90;;;1.93;65.73;96975.25;5061003;28;20494;-60
2023/12/17 00:51:05;;;;;;;6.57;5.73;;;2.30;99.90;;;1.92;65.64;96981.34;5062883;28;20461;-61
2023/12/17 00:53:34;;;;;;;8.90;6.87;;;2.30;99.90;;;1.92;66.14;96980.47;5060476;28;20472;-61
2023/12/17 00:56:01;;;;;;;11.17;6.20;;;2.30;99.90;;;1.90;65.70;96983.09;5061121;28;20868;-60
2023/12/17 00:58:29;;;;;;;9.33;6.80;;;2.30;99.90;;;1.88;65.68;96976.25;5063027;28;20987;-62
2023/12/17 01:00:57;;;;;;;16.70;7.50;;;2.30;99.90;;;1.85;66.37;96977.16;5061274;28;20554;-60
2023/12/17 01:03:24;;;;;;;10.30;6.53;;;2.20;99.90;;;1.84;65.76;96979.78;5062763;28;20498;-62
2023/12/17 01:05:51;;;;;;;10.10;6.80;;;2.20;99.90;;;1.84;65.73;96977.19;5062679;28;20562;-60
2023/12/17 01:08:18;;;;;;;11.30;6.53;;;2.20;99.90;;;1.83;66.01;96971.16;5060441;28;20476;-62
2023/12/17 01:10:47;;;;;;;8.97;6.53;;;2.20;99.90;;;1.83;65.81;96978.94;5060880;28;20471;-61
2023/12/17 01:13:14;;;;;;;8.63;5.80;;;2.20;99.90;;;1.83;66.08;96972.88;5061719;28;20486;-61
2023/12/17 01:15:42;;;;;;;10.73;6.30;;;2.20;99.90;;;1.82;66.53;96976.38;5059662;28;20459;-62
2023/12/17 01:18:09;;;;;;;8.17;5.00;;;2.20;99.90;;;1.79;65.64;96972.13;5059142;28;20475;-60
2023/12/17 01:20:36;;;;;;;8.73;5.90;;;2.20;99.90;;;1.77;65.74;96979.94;5061692;28;20894;-61
2023/12/17 01:23:04;;;;;;;12.17;5.87;;;2.10;99.90;;;1.75;66.77;96976.53;5059239;28;20487;-60
2023/12/17 01:25:31;;;;;;;9.80;5.37;;;2.10;99.90;;;1.76;66.05;96982.56;5059208;28;20982;-61
2023/12/17 01:28:00;;;;;;;9.77;7.00;;;2.10;99.90;;;1.75;66.40;96986.91;5061092;28;20471;-60
2023/12/17 01:30:27;;;;;;;7.40;5.40;;;2.10;99.90;;;1.75;65.43;96986.91;5059032;28;20849;-61
2023/12/17 01:32:55;;;;;;;7.20;5.83;;;2.10;99.90;;;1.74;65.64;96995.56;5059083;28;20466;-62
2023/12/17 01:35:22;;;;;;;7.17;5.63;;;2.10;99.90;;;1.74;66.38;96992.13;5061004;28;20571;-60
2023/12/17 01:37:49;;;;;;;8.60;5.87;;;2.10;99.90;;;1.73;66.40;96993.84;5059468;28;20471;-61
2023/12/17 01:40:17;;;;;;;7.70;5.30;;;2.10;99.90;;;1.72;66.48;96992.16;5059382;28;20467;-61
2023/12/17 01:42:44;;;;;;;8.93;4.83;;;2.10;99.90;;;1.72;65.83;96992.16;5061095;28;20490;-61
2023/12/17 01:45:12;;;;;;;7.50;5.00;;;2.10;99.90;;;1.72;65.32;97002.53;5059474;28;20474;-63
2023/12/17 01:47:40;;;;;;;8.10;5.40;;;2.10;99.90;;;1.72;65.76;96997.34;5058655;28;20578;-61
2023/12/17 01:50:08;;;;;;;7.90;5.23;;;2.10;99.90;;;1.71;65.94;97006.00;5060577;28;21299;-61
2023/12/17 01:52:36;;;;;;;7.10;5.23;;;2.10;99.90;;;1.70;65.32;97001.69;5059288;28;20689;-62
2023/12/17 01:55:04;;;;;;;5.23;4.73;;;2.10;99.90;;;1.70;65.64;97003.44;5058592;28;20540;-61
2023/12/17 01:57:31;;;;;;;6.43;5.83;;;2.10;99.90;;;1.68;66.05;97003.47;5061115;28;20580;-61
2023/12/17 01:59:59;;;;;;;6.10;4.80;;;2.00;99.90;;;1.67;66.60;97004.34;5059064;28;20467;-62
2023/12/17 02:02:27;;;;;;;5.57;4.80;;;2.00;99.90;;;1.68;65.62;97010.41;5058160;28;20480;-61
2023/12/17 02:04:55;;;;;;;8.70;5.40;;;2.00;99.90;;;1.66;65.75;96997.47;5054131;28;20448;-62
2023/12/17 02:07:22;;;;;;;7.73;5.73;;;2.00;99.90;;;1.66;65.64;96992.28;5059367;28;20467;-61
2023/12/17 02:09:49;;;;;;;4.97;4.13;;;2.10;99.90;;;1.66;65.20;96989.69;5060469;28;20491;-61
2023/12/17 02:12:25;;;;;;;5.53;4.37;;;2.00;99.90;;;1.66;64.85;96992.28;5010693;28;1367752;-62
2023/12/17 02:14:52;;;;;;;5.50;4.50;;;2.00;99.90;;;1.66;66.16;96987.09;5059621;28;20248;-61
2023/12/17 02:17:21;;;;;;;6.33;4.50;;;2.00;99.90;;;1.64;65.46;96983.66;5060496;28;20959;-60
2023/12/17 02:19:49;;;;;;;8.60;4.63;;;2.00;99.90;;;1.63;65.11;96987.16;5059906;28;20451;-62
2023/12/17 02:22:17;;;;;;;7.90;5.60;;;2.00;99.90;;;1.63;65.55;96984.56;5058728;28;20480;-61
2023/12/17 02:24:45;;;;;;;5.60;4.40;;;2.00;99.90;;;1.62;65.95;96990.63;5055547;28;20452;-60
2023/12/17 02:27:14;;;;;;;4.77;4.33;;;2.00;99.90;;;1.60;65.45;96987.22;5060270;28;20479;-62
2023/12/17 02:29:41;;;;;;;5.50;4.70;;;1.90;99.90;;;1.58;66.20;96981.19;5061255;28;20483;-62
2023/12/17 02:32:08;;;;;;;6.37;4.57;;;1.90;99.90;;;1.57;65.73;96988.13;5058915;28;20948;-61
2023/12/17 02:34:36;;;;;;;5.03;4.33;;;1.90;99.90;;;1.55;65.24;96982.16;5059473;28;20458;-61
2023/12/17 02:37:03;;;;;;;4.83;4.17;;;1.90;99.90;;;1.54;65.58;96985.63;5061257;28;20482;-61
2023/12/17 02:39:30;;;;;;;6.23;4.60;;;1.90;99.90;;;1.53;66.03;96985.66;5058911;28;20463;-62
2023/12/17 02:41:59;;;;;;;13.07;4.23;;;1.90;99.90;;;1.52;65.90;96990.00;5059253;28;21031;-61
2023/12/17 02:44:26;;;;;;;8.37;5.63;;;1.90;99.90;;;1.52;65.32;96994.31;5060761;28;20520;-61
2023/12/17 02:46:54;;;;;;;7.13;4.43;;;1.90;99.90;;;1.51;65.42;96997.81;5058391;28;20472;-62
2023/12/17 02:49:22;;;;;;;6.47;4.50;;;1.90;99.90;;;1.49;66.21;96991.78;5059110;28;20573;-62
2023/12/17 02:51:50;;;;;;;5.07;4.57;;;1.80;99.90;;;1.48;66.17;96993.53;5061030;28;21027;-60
2023/12/17 02:54:17;;;;;;;5.30;4.80;;;1.80;99.90;;;1.48;65.64;96987.50;5059295;28;20961;-61
2023/12/17 02:56:45;;;;;;;5.20;4.67;;;1.80;99.90;;;1.45;66.54;96987.56;5060528;28;20582;-61
2023/12/17 02:59:14;;;;;;;5.03;4.53;;;1.80;99.90;;;1.42;66.33;96994.50;5061028;28;20462;-61
2023/12/17 03:01:41;;;;;;;4.83;4.33;;;1.80;99.90;;;1.39;66.00;96993.72;5060559;28;20452;-61
2023/12/17 03:04:09;;;;;;;8.90;4.47;;;1.70;99.90;;;1.38;65.64;96997.19;5059315;28;20479;-60
2023/12/17 03:06:37;;;;;;;5.97;4.80;;;1.70;99.90;;;1.36;66.05;96994.63;5060959;28;20494;-61
2023/12/17 03:09:04;;;;;;;6.53;4.60;;;1.70;99.90;;;1.35;66.38;96990.34;5058605;28;20451;-60
2023/12/17 03:11:32;;;;;;;5.77;4.37;;;1.70;99.90;;;1.34;66.68;96990.38;5058519;28;20459;-61
2023/12/17 03:13:59;;;;;;;5.67;4.33;;;1.70;99.90;;;1.32;65.98;96992.16;5061118;28;20451;-61
2023/12/17 03:16:28;;;;;;;5.53;4.40;;;1.70;99.90;;;1.30;66.42;96994.75;5058591;28;20802;-61
2023/12/17 03:18:55;;;;;;;8.73;5.20;;;1.70;99.90;;;1.28;67.15;96998.25;5058408;28;20471;-61
2023/12/17 03:21:23;;;;;;;4.53;4.10;;;1.60;99.90;;;1.26;67.25;96998.28;5060682;28;20447;-61
2023/12/17 03:23:50;;;;;;;5.30;4.73;;;1.60;99.90;;;1.24;67.11;96990.56;5059221;28;20467;-61
2023/12/17 03:26:18;;;;;;;5.97;4.97;;;1.60;99.90;;;1.24;66.96;96994.88;5057989;28;21039;-62
2023/12/17 03:28:45;;;;;;;6.20;5.00;;;1.60;99.90;;;1.23;66.73;96987.97;5060187;28;20474;-61
2023/12/17 03:31:14;;;;;;;5.70;4.83;;;1.60;99.90;;;1.22;67.43;97001.81;5058548;28;20518;-63
2023/12/17 03:33:43;;;;;;;6.70;5.20;;;1.60;99.90;;;1.22;66.97;96994.03;5058004;28;21070;-62
2023/12/17 03:36:13;;;;;;;6.63;4.70;;;1.60;99.90;;;1.22;67.41;96996.63;5053957;28;20517;-61
2023/12/17 03:38:40;;;;;;;6.03;5.00;;;1.60;99.90;;;1.21;66.90;97002.72;5058343;28;20479;-62
2023/12/17 03:41:07;;;;;;;5.50;4.77;;;1.60;99.90;;;1.20;67.18;97014.81;5060229;28;20455;-61
2023/12/17 03:43:35;;;;;;;5.90;5.10;;;1.60;99.90;;;1.20;67.97;97011.38;5058017;28;20467;-62
2023/12/17 03:46:02;;;;;;;7.70;4.80;;;1.60;99.90;;;1.19;67.20;97015.72;5058703;28;20768;-62
2023/12/17 03:48:29;;;;;;;6.33;5.50;;;1.60;99.90;;;1.19;67.84;97012.25;5059944;28;20462;-60
2023/12/17 03:50:58;;;;;;;6.50;4.87;;;1.50;99.90;;;1.19;67.30;97012.25;5057480;28;20491;-61
2023/12/17 03:53:25;;;;;;;6.13;4.80;;;1.60;99.90;;;1.17;67.02;97014.88;5057975;28;20475;-62
2023/12/17 03:55:52;;;;;;;5.13;4.60;;;1.50;99.90;;;1.18;67.25;97026.09;5060011;28;20451;-60
2023/12/17 03:58:20;;;;;;;4.80;4.40;;;1.50;99.90;;;1.16;67.21;97022.66;5057841;28;20530;-62
2023/12/17 04:00:47;;;;;;;6.87;4.70;;;1.50;99.90;;;1.16;68.40;97022.66;5058061;28;20456;-61
2023/12/17 04:03:14;;;;;;;5.90;5.30;;;1.50;99.90;;;1.14;67.24;97024.44;5060163;28;20833;-62
2023/12/17 04:05:42;;;;;;;5.07;4.67;;;1.50;99.90;;;1.15;68.23;97026.16;5057513;28;21025;-62
2023/12/17 04:08:11;;;;;;;4.20;3.80;;;1.50;99.90;;;1.13;67.51;97022.72;5058078;28;20474;-61
2023/12/17 04:10:38;;;;;;;5.73;5.00;;;1.50;99.90;;;1.13;67.73;97023.59;5059753;28;20513;-61
2023/12/17 04:13:06;;;;;;;5.93;4.57;;;1.50;99.90;;;1.13;68.63;97020.13;5058077;28;21065;-61
2023/12/17 04:15:33;;;;;;;7.23;5.20;;;1.50;99.90;;;1.11;68.56;97027.09;5058172;28;20452;-60
2023/12/17 04:18:01;;;;;;;6.23;4.87;;;1.50;99.90;;;1.09;68.26;97023.69;5060091;28;20949;-60
2023/12/17 04:20:28;;;;;;;23.53;5.90;;;1.50;99.90;;;1.08;67.45;97028.00;5059519;28;20462;-62
2023/12/17 04:22:55;;;;;;;5.50;5.00;;;1.40;99.90;;;1.09;67.76;97031.47;5058781;28;20478;-62
2023/12/17 04:25:25;;;;;;;5.90;5.30;;;1.50;99.90;;;1.07;67.92;97032.34;5057224;28;20452;-61
2023/12/17 04:27:52;;;;;;;6.10;5.40;;;1.40;99.90;;;1.08;68.70;97035.78;5058966;28;20478;-62
2023/12/17 04:30:19;;;;;;;6.93;5.23;;;1.50;99.90;;;1.07;67.24;97034.09;5058827;28;20486;-61
2023/12/17 04:32:48;;;;;;;7.37;5.13;;;1.50;99.90;;;1.06;68.51;97029.78;5056954;28;20525;-61
2023/12/17 04:35:15;;;;;;;7.70;4.60;;;1.40;99.90;;;1.04;68.44;97032.41;5058946;28;20474;-60
2023/12/17 04:37:43;;;;;;;5.83;4.97;;;1.40;99.90;;;1.04;68.04;97045.34;5060006;28;20467;-61
2023/12/17 04:40:12;;;;;;;8.23;5.30;;;1.40;99.90;;;1.03;68.12;97046.22;5057512;28;20514;-61
2023/12/17 04:42:41;;;;;;;8.30;5.43;;;1.40;99.90;;;1.03;68.41;97053.16;5061815;28;20458;-61
2023/12/17 04:45:09;;;;;;;12.07;5.97;;;1.40;99.90;;;1.01;67.68;97049.75;5063450;28;20870;-61
2023/12/17 04:47:36;;;;;;;7.00;5.10;;;1.40;99.90;;;0.99;67.59;97054.97;5057520;28;20795;-60
2023/12/17 04:50:04;;;;;;;7.33;4.77;;;1.40;99.90;;;0.97;67.65;97048.94;5061429;28;20494;-61
2023/12/17 04:52:32;;;;;;;9.13;6.40;;;1.40;99.90;;;0.96;67.44;97055.00;5062955;28;20536;-61
2023/12/17 04:54:59;;;;;;;5.80;5.17;;;1.40;99.90;;;0.95;67.76;97050.69;5062302;28;20455;-61
2023/12/17 04:57:27;;;;;;;6.63;5.03;;;1.30;99.90;;;0.94;68.36;97056.75;5063746;28;20467;-61
2023/12/17 04:59:56;;;;;;;8.10;5.30;;;1.30;99.90;;;0.91;67.64;97048.19;5064248;28;20455;-61
2023/12/17 05:02:24;;;;;;;8.40;6.37;;;1.30;99.90;;;0.88;67.37;97046.50;5060382;28;20471;-61
2023/12/17 05:04:51;;;;;;;9.20;5.80;;;1.30;99.90;;;0.89;68.33;97053.41;5060655;28;20451;-61
2023/12/17 05:07:18;;;;;;;7.30;5.20;;;1.30;99.90;;;0.88;67.82;97060.31;5063089;28;20869;-60
2023/12/17 05:09:45;;;;;;;8.10;5.93;;;1.30;99.90;;;0.88;68.16;97059.44;5060452;28;20448;-60
2023/12/17 05:12:12;;;;;;;6.27;5.57;;;1.30;99.90;;;0.87;68.90;97066.38;5060532;28;20479;-61
2023/12/17 05:14:39;;;;;;;8.03;5.73;;;1.30;99.90;;;0.87;68.23;97073.31;5062607;28;20482;-61
2023/12/17 05:17:08;;;;;;;7.70;5.30;;;1.30;99.90;;;0.86;67.65;97069.84;5060674;28;20476;-61
2023/12/17 05:19:35;;;;;;;11.00;6.37;;;1.30;99.90;;;0.86;68.27;97072.44;5060995;28;20455;-62
2023/12/17 05:22:03;;;;;;;8.60;6.50;;;1.30;99.90;;;0.84;68.67;97076.78;5063052;28;20570;-62
2023/12/17 05:24:30;;;;;;;9.53;5.93;;;1.20;99.90;;;0.81;68.22;97084.63;5060500;28;20459;-62
2023/12/17 05:26:57;;;;;;;7.33;6.00;;;1.20;99.90;;;0.79;68.24;97086.38;5061065;28;20948;-61
2023/12/17 05:29:24;;;;;;;10.50;6.97;;;1.20;99.90;;;0.78;67.56;97091.59;5062956;28;20447;-61
2023/12/17 05:31:52;;;;;;;12.40;7.57;;;1.20;99.90;;;0.75;68.43;97087.31;5059559;28;20483;-61
2023/12/17 05:34:20;;;;;;;12.30;7.70;;;1.20;99.90;;;0.75;69.00;97096.81;5060895;28;20447;-60
2023/12/17 05:36:48;;;;;;;13.97;6.70;;;1.20;99.90;;;0.76;68.51;97090.75;5062593;28;20881;-61
2023/12/17 05:39:15;;;;;;;14.87;7.40;;;1.20;99.90;;;0.77;68.25;97092.47;5061912;28;20528;-61
2023/12/17 05:41:42;;;;;;;12.80;7.00;;;1.20;99.90;;;0.78;68.27;97096.78;5061650;28;21006;-60
2023/12/17 05:44:09;;;;;;;13.13;6.63;;;1.20;99.90;;;0.75;67.99;97104.59;5059433;28;20956;-61
2023/12/17 05:46:36;;;;;;;10.00;5.40;;;1.20;99.90;;;0.75;68.36;97102.00;5061314;28;20447;-61
2023/12/17 05:49:04;;;;;;;11.43;7.33;;;1.10;99.90;;;0.74;68.03;97090.75;5062800;28;20456;-61
2023/12/17 05:51:32;;;;;;;9.40;5.90;;;1.20;99.90;;;0.73;67.47;97090.78;5061440;28;21162;-62
2023/12/17 05:54:00;;;;;;;8.93;5.73;;;1.10;99.90;;;0.74;67.65;97092.50;5059700;28;20990;-61
2023/12/17 05:56:27;;;;;;;7.43;6.00;;;1.10;99.90;;;0.74;67.41;97097.69;5060562;28;20486;-61
2023/12/17 05:58:54;;;;;;;8.60;6.50;;;1.10;99.90;;;0.75;67.76;97099.41;5061946;28;20478;-60
2023/12/17 06:01:21;;;;;;;11.63;7.57;;;1.10;99.90;;;0.74;67.95;97097.69;5059218;28;20463;-60
2023/12/17 06:03:49;;;;;;;8.97;6.73;;;1.20;99.90;;;0.75;67.74;97096.81;5059686;28;20518;-61
2023/12/17 06:06:17;;;;;;;14.30;8.20;;;1.10;99.90;;;0.76;67.67;97098.50;5061635;28;20451;-62
2023/12/17 06:08:46;;;;;;;12.70;7.87;;;1.10;99.90;;;0.78;67.86;97097.63;5059576;28;20992;-67
2023/12/17 06:11:16;;;;;;;11.27;7.53;;;1.20;99.90;;;0.80;67.04;97101.03;5059571;28;20499;-61
2023/12/17 06:13:44;;;;;;;12.27;7.07;;;1.20;99.90;;;0.94;66.87;97100.78;5061786;28;20506;-62
2023/12/17 06:16:12;;;;;;;8.13;6.07;;;1.30;99.90;;;1.35;67.76;97101.81;5060384;28;20493;-62
2023/12/17 06:18:40;;;;;;;8.50;6.73;;;1.70;99.90;;;1.98;67.29;97099.69;5058607;28;20484;-61
2023/12/17 06:21:07;;;;;;;9.53;6.37;;;2.30;99.90;;;2.69;65.58;97096.38;5061234;28;20443;-62
2023/12/17 06:23:34;;;;;;;6.73;5.33;;;3.00;99.90;;;3.39;64.37;97092.03;5059729;28;20529;-62
2023/12/17 06:26:04;;;;;;;6.13;4.87;;;3.70;99.90;;;4.11;62.61;97102.19;5058362;28;20965;-61
2023/12/17 06:28:31;;;;;;;8.43;5.70;;;4.40;99.90;;;4.78;60.71;97088.00;5055464;28;20472;-61
2023/12/17 06:30:59;;;;;;;7.23;4.67;;;5.20;99.60;;;5.45;59.89;97105.75;5059523;28;20585;-62
2023/12/17 06:33:26;;;;;;;5.80;5.20;;;5.90;98.90;;;6.08;59.29;97105.31;5060197;28;20471;-62
2023/12/17 06:35:53;;;;;;;11.00;6.53;;;6.50;98.10;;;6.67;58.23;97109.16;5059168;28;20483;-62
2023/12/17 06:38:20;;;;;;;10.20;6.57;;;7.10;97.20;;;7.23;57.41;97113.00;5059960;28;20634;-62
2023/12/17 06:40:48;;;;;;;10.80;6.20;;;7.80;96.20;;;7.77;56.06;97105.47;5061368;28;20454;-62
2023/12/17 06:43:17;;;;;;;11.40;6.37;;;8.30;94.90;;;8.28;55.41;97112.84;5055459;28;21014;-63
2023/12/17 06:45:44;;;;;;;8.03;6.83;;;8.90;94.10;;;8.71;54.88;97100.41;5059987;28;20443;-62
2023/12/17 06:48:11;;;;;;;9.77;6.60;;;9.30;93.60;;;9.03;53.03;97113.72;5061729;28;20578;-61
2023/12/17 06:50:39;;;;;;;9.10;6.40;;;9.70;92.00;;;9.21;52.39;97104.94;5058516;28;20491;-61
2023/12/17 06:53:06;;;;;;;14.10;10.50;;;9.90;90.60;;;9.51;52.08;97112.22;5059368;28;20479;-62
2023/12/17 06:55:33;;;;;;;23.83;14.43;;;10.10;88.50;;;9.83;50.79;97122.84;5061326;28;20452;-61
2023/12/17 06:58:00;;;;;;;15.73;9.40;;;10.30;86.80;;;10.16;50.56;97114.13;5058698;28;20488;-61
2023/12/17 07:00:29;;;;;;;17.83;12.70;;;10.60;86.80;;;10.24;50.08;97119.84;5059264;28;20447;-62
2023/12/17 07:02:56;;;;;;;29.50;21.47;;;10.60;85.30;;;9.98;49.95;97126.47;5059427;28;20478;-62
2023/12/17 07:05:23;;;;;;;15.30;11.27;;;10.50;83.40;;;9.51;50.02;97138.47;5058318;28;20965;-62
2023/12/17 07:07:51;;;;;;;13.40;7.20;;;10.10;82.00;;;9.01;50.02;97134.78;5059045;28;20474;-62
2023/12/17 07:10:18;;;;;;;22.50;12.13;;;9.70;82.70;;;8.53;51.13;97139.66;5060812;28;20470;-61
2023/12/17 07:12:45;;;;;;;16.30;9.53;;;9.20;83.70;;;8.08;51.33;97144.25;5058246;28;20553;-63
2023/12/17 07:15:13;;;;;;;13.33;8.07;;;8.70;84.00;;;7.96;52.34;97144.81;5059081;28;20982;-63
2023/12/17 07:17:42;;;;;;;15.30;9.70;;;8.50;87.00;;;7.84;51.67;97135.72;5060738;28;20475;-62
2023/12/17 07:20:10;;;;;;;20.07;11.77;;;8.30;86.60;;;7.56;52.04;97146.56;5058545;28;20455;-62
2023/12/17 07:22:38;;;;;;;16.30;11.93;;;8.10;86.80;;;7.24;52.77;97140.88;5058711;28;21015;-62
2023/12/17 07:25:07;;;;;;;22.73;14.17;;;7.70;86.50;;;6.93;52.65;97133.44;5060982;28;20451;-62
2023/12/17 07:27:34;;;;;;;29.90;15.17;;;7.40;86.70;;;6.62;52.19;97132.88;5058440;28;20471;-60
2023/12/17 07:30:01;;;;;;;24.17;12.67;;;7.10;86.30;;;6.33;53.62;97135.75;5058293;28;20448;-62
2023/12/17 07:32:28;;;;;;;24.90;14.03;;;6.80;88.40;;;6.06;53.99;97128.03;5059310;28;20490;-63
2023/12/17 07:34:57;;;;;;;26.37;13.30;;;6.50;89.50;;;5.83;54.95;97127.06;5058361;28;20452;-62
2023/12/17 07:37:25;;;;;;;26.77;14.47;;;6.20;90.50;;;5.60;55.25;97125.25;5057554;28;20576;-62
2023/12/17 07:39:52;;;;;;;22.30;13.70;;;6.00;91.10;;;5.40;55.26;97123.31;5057573;28;20456;-62
2023/12/17 07:42:19;;;;;;;32.20;14.93;;;5.80;91.20;;;5.21;56.07;97129.16;5059649;28;20506;-61
2023/12/17 07:44:47;;;;;;;36.27;18.13;;;5.60;91.80;;;5.06;56.50;97124.44;5060294;28;20455;-61
2023/12/17 07:47:14;;;;;;;28.70;17.73;;;5.40;92.20;;;4.93;57.09;97128.38;5057724;28;20479;-62
2023/12/17 07:49:41;;;;;;;26.73;17.73;;;5.30;92.80;;;4.78;57.03;97138.38;5059463;28;20451;-62
2023/12/17 07:52:11;;;;;;;30.17;16.93;;;5.20;92.90;;;4.65;57.25;97144.88;5059842;28;20494;-61
2023/12/17 07:54:38;;;;;;;17.77;12.23;;;5.00;93.40;;;4.53;57.44;97151.31;5053785;28;20499;-62
2023/12/17 07:57:06;;;;;;;15.57;11.43;;;4.90;93.60;;;4.41;57.46;97154.28;5059236;28;20528;-62
2023/12/17 07:59:33;;;;;;;23.70;15.93;;;4.80;94.00;;;4.29;58.32;97158.97;5059959;28;20455;-61
2023/12/17 08:02:00;;;;;;;16.80;13.20;;;4.60;94.40;;;4.21;58.74;97160.91;5056407;28;20551;-61
2023/12/17 08:04:28;;;;;;;13.27;10.10;;;4.50;95.00;;;4.12;58.88;97150.75;5059361;28;20947;-63
2023/12/17 08:06:55;;;;;;;11.07;9.20;;;4.40;95.20;;;4.02;59.16;97158.00;5059744;28;20552;-63
2023/12/17 08:09:24;;;;;;;15.80;12.43;;;4.30;95.50;;;3.94;59.48;97166.03;5057825;28;20452;-62
2023/12/17 08:11:51;;;;;;;13.90;10.53;;;4.30;95.70;;;3.85;59.60;97168.88;5058766;28;20486;-61
2023/12/17 08:14:18;;;;;;;29.77;16.20;;;4.20;95.90;;;3.79;59.82;97174.25;5060120;28;20458;-62
2023/12/17 08:16:46;;;;;;;18.07;15.00;;;4.10;96.30;;;3.72;60.02;97173.56;5056779;28;20443;-62
2023/12/17 08:19:14;;;;;;;12.80;8.80;;;4.00;96.50;;;3.68;60.09;97177.13;5061373;28;20466;-62
2023/12/17 08:21:41;;;;;;;10.70;7.33;;;4.00;96.70;;;3.64;60.18;97177.25;5061736;28;21466;-62
2023/12/17 08:24:08;;;;;;;15.23;10.03;;;4.00;96.80;;;3.59;60.27;97174.78;5061053;28;20440;-62
2023/12/17 08:26:37;;;;;;;13.50;9.50;;;3.90;97.00;;;3.53;60.61;97180.13;5062350;28;20454;-62
2023/12/17 08:29:04;;;;;;;11.07;7.60;;;3.80;97.20;;;3.51;60.76;97176.72;5063762;28;20450;-62
2023/12/17 08:31:32;;;;;;;9.97;7.93;;;3.80;97.50;;;3.51;61.02;97180.16;5056336;28;20933;-62
2023/12/17 08:34:01;;;;;;;16.07;10.10;;;3.80;97.80;;;3.52;61.14;97171.47;5062456;28;20456;-61
2023/12/17 08:36:28;;;;;;;9.27;7.23;;;3.80;98.00;;;3.54;60.99;97171.44;5061083;28;20479;-61
2023/12/17 08:38:56;;;;;;;11.83;8.23;;;3.80;98.20;;;3.55;61.25;97171.41;5063587;28;20466;-62
2023/12/17 08:41:23;;;;;;;10.00;7.00;;;3.80;98.50;;;3.55;61.37;97163.59;5062882;28;20452;-62
2023/12/17 08:43:52;;;;;;;9.67;7.50;;;3.90;98.40;;;3.57;61.57;97159.19;5061079;28;20499;-62
2023/12/17 08:46:19;;;;;;;10.33;8.00;;;3.90;98.50;;;3.60;61.54;97150.47;5063213;28;20625;-61
2023/12/17 08:48:46;;;;;;;8.17;6.87;;;3.90;98.50;;;3.62;61.29;97146.06;5062832;28;21006;-62
2023/12/17 08:51:14;;;;;;;8.83;7.30;;;3.90;98.50;;;3.65;61.44;97142.53;5060826;28;21038;-62
2023/12/17 08:53:42;;;;;;;11.57;6.80;;;3.90;98.30;;;3.65;61.22;97147.75;5063076;28;20474;-62
2023/12/17 08:56:10;;;;;;;8.13;6.30;;;4.00;98.40;;;3.68;61.31;97139.84;5062747;28;20649;-62
2023/12/17 08:58:37;;;;;;;8.80;6.90;;;4.00;98.30;;;3.73;61.40;97137.97;5060747;28;20464;-61
2023/12/17 09:01:06;;;;;;;9.57;7.03;;;4.00;98.30;;;3.75;61.23;97144.00;5063161;28;20590;-61
2023/12/17 09:03:33;;;;;;;9.17;7.00;;;4.00;98.10;;;3.80;60.75;97136.06;5061755;28;20536;-61
2023/12/17 09:06:01;;;;;;;8.70;7.77;;;4.10;98.00;;;3.82;60.82;97136.88;5060643;28;20448;-62
2023/12/17 09:08:28;;;;;;;7.47;6.30;;;4.10;97.90;;;3.85;60.58;97142.00;5062800;28;20545;-62
2023/12/17 09:10:55;;;;;;;9.47;6.80;;;4.10;97.70;;;3.86;60.87;97141.94;5062701;28;20483;-61
2023/12/17 09:13:23;;;;;;;9.90;7.80;;;4.10;97.70;;;3.87;60.91;97140.19;5060579;28;20526;-62
2023/12/17 09:15:50;;;;;;;11.80;7.67;;;4.10;97.80;;;3.86;60.39;97149.75;5062259;28;20562;-62
2023/12/17 09:18:19;;;;;;;9.70;7.27;;;4.10;97.80;;;3.86;60.58;97154.13;5062126;28;20550;-62
2023/12/17 09:20:46;;;;;;;8.90;6.73;;;4.10;97.70;;;3.85;60.67;97142.84;5060280;28;20487;-61
2023/12/17 09:23:14;;;;;;;8.93;7.00;;;4.10;97.60;;;3.85;60.62;97144.59;5062559;28;20482;-62
2023/12/17 09:25:41;;;;;;;10.43;7.67;;;4.10;97.60;;;3.84;60.64;97148.09;5062525;28;20458;-62
2023/12/17 09:28:08;;;;;;;14.03;7.73;;;4.10;97.60;;;3.82;60.31;97140.31;5059798;28;20471;-62
2023/12/17 09:30:36;;;;;;;9.97;7.90;;;4.10;97.60;;;3.79;60.48;97143.00;5062048;28;20510;-61
2023/12/17 09:33:03;;;;;;;11.30;7.87;;;4.10;97.60;;;3.73;60.33;97141.44;5061445;28;20483;-62
2023/12/17 09:35:32;;;;;;;9.53;8.20;;;4.10;97.60;;;3.72;60.38;97144.94;5060183;28;20455;-62
2023/12/17 09:37:59;;;;;;;13.97;8.50;;;4.00;97.60;;;3.66;60.53;97147.69;5062140;28;20467;-61
2023/12/17 09:40:27;;;;;;;12.90;8.10;;;4.00;97.60;;;3.62;60.44;97142.63;5062694;28;20509;-62
2023/12/17 09:42:54;;;;;;;10.90;8.03;;;3.90;97.50;;;3.58;60.85;97140.09;5059816;28;21125;-62
2023/12/17 09:45:22;;;;;;;10.07;7.53;;;3.90;97.80;;;3.59;60.98;97147.03;5061627;28;20446;-62
2023/12/17 09:47:49;;;;;;;8.17;6.47;;;3.90;98.10;;;3.62;61.00;97140.03;5062563;28;20471;-62
2023/12/17 09:50:16;;;;;;;9.77;6.90;;;3.90;98.20;;;3.64;61.17;97136.50;5060266;28;20479;-62
2023/12/17 09:52:45;;;;;;;9.27;7.27;;;3.90;98.20;;;3.68;61.01;97132.88;5061949;28;20551;-62
2023/12/17 09:55:13;;;;;;;10.60;8.00;;;3.90;98.20;;;3.69;60.42;97125.97;5062281;28;20459;-61
2023/12/17 09:57:41;;;;;;;10.50;7.13;;;3.90;97.80;;;3.69;60.84;97133.75;5062562;28;20462;-62
2023/12/17 10:00:12;;;;;;;10.47;7.90;;;4.00;97.70;;;3.67;60.77;97122.53;5061326;28;20455;-61
2023/12/17 10:02:40;;;;;;;11.33;7.57;;;4.00;97.70;;;3.66;60.85;97110.44;5058786;28;20479;-62
2023/12/17 10:05:09;;;;;;;10.47;8.00;;;4.00;98.00;;;3.69;61.07;97105.13;5061831;28;20512;-62
2023/12/17 10:07:37;;;;;;;11.13;8.03;;;4.00;98.10;;;3.75;61.05;97104.97;5061606;28;20471;-62
2023/12/17 10:10:07;;;;;;;10.43;7.47;;;4.00;98.20;;;3.81;61.07;97109.13;5059639;28;20504;-62
2023/12/17 10:12:35;;;;;;;11.20;7.43;;;4.10;98.60;;;3.84;60.84;97104.72;5060632;28;20586;-62
2023/12/17 10:15:02;;;;;;;9.10;7.10;;;4.10;98.10;;;3.87;60.80;97101.16;5062135;28;20461;-61
2023/12/17 10:17:30;;;;;;;12.60;9.10;;;4.10;98.10;;;3.92;60.52;97101.88;5055859;28;20490;-62
2023/12/17 10:19:57;;;;;;;8.10;6.90;;;4.20;97.70;;;3.93;60.50;97099.25;5060490;28;20455;-62
2023/12/17 10:22:25;;;;;;;11.50;7.47;;;4.20;97.70;;;3.97;60.25;97093.91;5061518;28;20479;-62
2023/12/17 10:24:52;;;;;;;11.30;7.70;;;4.20;97.60;;;4.00;60.27;97094.69;5055475;28;20509;-63
2023/12/17 10:27:22;;;;;;;8.90;7.77;;;4.20;97.70;;;4.04;60.23;97091.09;5060559;28;20506;-62
2023/12/17 10:29:51;;;;;;;15.43;8.30;;;4.30;97.70;;;4.08;60.74;97082.31;5062202;28;20454;-62